Aviation Digital Data Service (ADDS)

Output produced by METARs form (2206 UTC 24 February 2018)
found at http://www.aviationweather.gov/adds/metars/
 
KTVR 242153Z AUTO 20004KT 10SM BKN060 BKN075 OVC090 27/18 A2988 RMK AO2 SLP124 T02670178
KTVR 242053Z AUTO 19009G19KT 10SM FEW070 BKN100 27/18 A2987 RMK AO2 SLP121 T02720178 56035
KTVR 241953Z AUTO 18014G21KT 10SM FEW070 BKN100 27/18 A2991 RMK AO2 SLP133 T02720183
KTVR 241853Z AUTO 18017KT 10SM SCT043 BKN090 27/20 A2994 RMK AO2 SLP143 T02720200
KTVR 241753Z AUTO 18016G23KT 10SM CLR 26/19 A2998 RMK AO2 SLP156 T02610194 10267 20194 58027
KTVR 241708Z AUTO 18013G21KT 10SM FEW029 SCT034 26/20 A3000 RMK AO2 T02560200
KTVR 241653Z AUTO 18012G20KT 10SM BKN027 BKN034 24/21 A3001 RMK AO2 SLP168 T02440206
KTVR 241602Z AUTO 17013G22KT 10SM BKN022 24/21 A3003 RMK AO2 T02390211
KTVR 241553Z AUTO 17017KT 10SM SCT022 24/21 A3003 RMK AO2 SLP175 T02390211
KTVR 241453Z AUTO 16011KT 9SM FEW012 FEW095 22/21 A3006 RMK AO2 SLP183 T02220211 50001
KTVR 241353Z AUTO 16009KT 7SM FEW075 21/21 A3007 RMK AO2 SLP187 T02110206
KTVR 241253Z AUTO 14007KT 6SM BR BKN032 OVC050 20/20 A3006 RMK AO2 SLP187 T02000200
KTVR 241218Z AUTO 15005KT 7SM FEW026 BKN041 OVC050 20/20 A3006 RMK AO2 T02000200
KTVR 241209Z AUTO 15005KT 7SM BKN028 OVC041 20/20 A3006 RMK AO2 T02000200
KTVR 241153Z AUTO 15006KT 7SM SCT025 BKN030 OVC039 20/20 A3005 RMK AO2 SLP183 70008 T02000200 10206 20194 55002
KTVR 241141Z AUTO 16006KT 7SM BKN030 OVC039 20/20 A3005 RMK AO2 T02000200
KTVR 241053Z AUTO 16006KT 7SM FEW017 BKN021 OVC039 20/20 A3005 RMK AO2 SLP182 T02000200
KTVR 240953Z AUTO 17008KT 7SM OVC022 20/20 A3005 RMK AO2 SLP182 T02000200
KTVR 240853Z AUTO 16007KT 8SM OVC023 20/20 A3006 RMK AO2 SLP184 T02000200 58009
KTVR 240753Z AUTO 19004KT 8SM BKN015 OVC020 19/19 A3009 RMK AO2 SLP193 T01940194
KTVR 240751Z AUTO 19004KT 8SM BKN015 OVC022 19/19 A3008 RMK AO2
KTVR 240741Z AUTO 18005KT 8SM BKN013 19/19 A3008 RMK AO2 T01940194
KTVR 240653Z AUTO 16007KT 10SM FEW015 20/20 A3009 RMK AO2 SLP193 T02000200
KTVR 240634Z AUTO 17007KT 10SM SCT013 BKN018 20/20 A3009 RMK AO2 T02000200
KTVR 240616Z AUTO 17010KT 10SM BKN011 OVC017 21/21 A3010 RMK AO2 T02060206
KTVR 240553Z AUTO 16011KT 10SM OVC008 20/20 A3010 RMK AO2 SLP198 T02000200 10200 20189 402670183 56008
KTVR 240526Z AUTO 16010KT 10SM BKN008 20/20 A3011 RMK AO2 T02000200
KTVR 240453Z AUTO 16006KT 10SM BKN010 19/19 A3011 RMK AO2 SLP201 T01940194
KTVR 240448Z AUTO 15007KT 10SM BKN010 19/19 A3011 RMK AO2
KTVR 240422Z AUTO 13005KT 10SM SCT010 19/19 A3011 RMK AO2 T01890189
KTVR 240404Z AUTO 14006KT 10SM BKN010 19/19 A3012 RMK AO2 T01940194
KTVR 240353Z AUTO 14005KT 10SM BKN009 19/19 A3012 RMK AO2 SLP206 T01940194
KTVR 240309Z AUTO 14005KT 10SM OVC009 19/19 A3013 RMK AO2 T01940194
KTVR 240253Z AUTO 14005KT 10SM BKN010 OVC060 19/19 A3014 RMK AO2 SLP211 T01940194 58002
KTVR 240244Z AUTO 15005KT 10SM BKN010 OVC060 19/19 A3014 RMK AO2 T01940194
KTVR 240234Z AUTO 15006KT 10SM SCT010 OVC060 19/19 A3014 RMK AO2 T01940194
KTVR 240202Z AUTO 16004KT 10SM BKN010 OVC050 20/20 A3015 RMK AO2 T02000200
KTVR 240153Z AUTO 15004KT 10SM BKN009 OVC050 20/20 A3015 RMK AO2 SLP215 T02000200
KTVR 240143Z AUTO 17004KT 10SM SCT009 OVC050 19/19 A3015 RMK AO2 T01940194
KTVR 240113Z AUTO 12006KT 10SM BKN009 OVC060 19/19 A3015 RMK AO2 T01940194
KTVR 240101Z AUTO 12008KT 10SM BKN010 OVC060 19/19 A3014 RMK AO2 T01940194
KTVR 240053Z AUTO 11007KT 10SM SCT010 OVC065 19/19 A3014 RMK AO2 SLP214 T01940194
KTVR 232353Z AUTO 11008KT 10SM OVC070 20/20 A3015 RMK AO2 SLP215 60008 T02000200 10267 20200 56011
KTVR 232253Z AUTO 11006KT 10SM OVC070 21/21 A3016 RMK AO2 RAE43 SLP218 P0001 T02060206
KTVR 232153Z AUTO 14010KT 6SM -RA BR SCT070 OVC085 21/21 A3016 RMK AO2 RAE09B25 SLP218 P0001 T02060206
KTVR 232053Z AUTO 14011KT 7SM -RA BKN070 OVC080 21/21 A3018 RMK AO2 SLP225 P0005 60006 T02110211 56020
KTVR 232009Z AUTO 14009KT 3SM -RA BR SCT049 BKN060 OVC080 21/20 A3020 RMK AO2 P0004 T02110200
KTVR 232001Z AUTO 14011KT 1 3/4SM +RA BR FEW039 BKN049 OVC080 21/20 A3020 RMK AO2 P0003 T02110200
KTVR 231953Z AUTO 14015KT 4SM -RA BR FEW043 BKN060 OVC080 22/21 A3020 RMK AO2 RAB34 SLP232 P0001 T02170206
KTVR 231853Z AUTO 14008KT 10SM FEW046 BKN075 BKN095 26/19 A3019 RMK AO2 SLP230 T02560189
KTVR 231753Z AUTO 17005KT 10SM FEW033 FEW044 SCT070 26/19 A3024 RMK AO2 SLP245 T02610194 10267 20183 58020
KTVR 231653Z AUTO 17008KT 10SM FEW070 24/21 A3027 RMK AO2 SLP255 T02440206
KTVR 231553Z AUTO 17010KT 10SM CLR 23/21 A3029 RMK AO2 SLP264 T02330206
KTVR 231523Z AUTO 17010KT 10SM SCT026 23/21 A3029 RMK AO2 T02280206
KTVR 231453Z AUTO 17008KT 10SM BKN018 22/20 A3030 RMK AO2 SLP265 T02220200 50008
KTVR 231451Z AUTO 18008KT 10SM BKN018 BKN027 22/20 A3030 RMK AO2
KTVR 231411Z AUTO 14006KT 10SM FEW022 SCT029 BKN038 21/21 A3028 RMK AO2 T02110206
KTVR 231353Z AUTO 15007KT 9SM BKN023 BKN030 OVC038 21/20 A3029 RMK AO2 SLP261 T02060200
KTVR 231334Z AUTO 14004KT 8SM BKN023 OVC036 19/19 A3029 RMK AO2 T01940194
KTVR 231253Z AUTO 16004KT 7SM SCT028 OVC037 19/19 A3027 RMK AO2 SLP257 T01890189
KTVR 231153Z AUTO 16003KT 8SM FEW044 18/18 A3025 RMK AO2 SLP249 T01830183 10211 20183 53005
KTVR 231053Z AUTO 16007KT 10SM FEW020 19/19 A3023 RMK AO2 SLP243 T01940194
KTVR 230953Z AUTO 16009KT 10SM FEW021 20/19 A3023 RMK AO2 SLP242 T02000194
KTVR 230853Z AUTO 16008KT 10SM CLR 20/19 A3024 RMK AO2 SLP244 T02000194 58008
KTVR 230753Z AUTO 15011KT 10SM SCT030 SCT037 BKN046 21/20 A3025 RMK AO2 SLP250 T02060200
KTVR 230653Z AUTO 16008KT 10SM SCT036 21/19 A3027 RMK AO2 SLP254 T02110194
KTVR 230553Z AUTO 16008KT 10SM CLR 21/19 A3026 RMK AO2 SLP254 T02110194 10256 20211 402780144 50008
KTVR 230453Z AUTO 17015KT 10SM CLR 22/19 A3026 RMK AO2 SLP254 T02220194
KTVR 230353Z AUTO 17013KT 10SM CLR 23/19 A3025 RMK AO2 SLP248 T02280189
KTVR 230253Z AUTO 18008KT 10SM CLR 23/18 A3024 RMK AO2 SLP246 T02330183 52021
KTVR 230153Z AUTO 17008KT 10SM CLR 23/18 A3022 RMK AO2 SLP239 T02330183
KTVR 230053Z AUTO 16009KT 10SM CLR 24/18 A3019 RMK AO2 SLP231 T02390183
KTVR 222353Z AUTO 17011KT 10SM CLR 26/18 A3017 RMK AO2 SLP223 T02560183 10278 20189 55009
KTVR 222253Z AUTO 00000KT 10SM SCT065 26/20 A3017 RMK AO2 SLP222 T02610200
KTVR 222153Z AUTO 01005KT 10SM SCT070 27/20 A3018 RMK AO2 SLP227 T02670200
KTVR 222053Z AUTO 07003KT 4SM HZ CLR 26/20 A3020 RMK AO2 SLP233 T02610200 56034
KTVR 221953Z AUTO VRB04KT 10SM CLR 24/19 A3023 RMK AO2 SLP242 T02440194
KTVR 221853Z AUTO 03004KT 10SM SCT100 22/18 A3027 RMK AO2 SLP256 T02170183
KTVR 221809Z AUTO 06006KT 10SM SCT007 SCT043 BKN095 19/17 A3030 RMK AO2 T01890167
KTVR 221753Z AUTO 02008KT 10SM BKN007 19/17 A3030 RMK AO2 RAB20E29 SLP268 P0000 60000 T01890167 10206 20144 58001
KTVR 221653Z AUTO 30009G14KT 10SM BKN009 OVC100 17/15 A3032 RMK AO2 SLP275 T01720150
KTVR 221651Z AUTO 31011G14KT 10SM BKN009 OVC100 17/16 A3032 RMK AO2
KTVR 221612Z AUTO 01006KT 10SM FEW008 FEW030 OVC100 21/19 A3031 RMK AO2 LTG DSNT NW T02060189
KTVR 221553Z AUTO 03004KT 10SM FEW031 BKN100 19/18 A3031 RMK AO2 LTG DSNT W AND NW SLP269 T01890178
KTVR 221529Z AUTO 01005KT 10SM FEW008 SCT023 OVC100 18/18 A3030 RMK AO2 LTG DSNT W AND NW T01830178
KTVR 221453Z AUTO 01005KT 10SM SCT007 OVC018 17/16 A3029 RMK AO2 LTG DSNT W-N SLP264 T01670161 51020
KTVR 221353Z AUTO 33003KT 10SM OVC007 16/16 A3029 RMK AO2 LTG DSNT N AND NW SLP262 T01560156
KTVR 221253Z AUTO 31003KT 8SM OVC007 15/15 A3026 RMK AO2 LTG DSNT W AND NW SLP254 T01500150
KTVR 221225Z AUTO 00000KT 7SM BKN009 BKN020 BKN027 15/15 A3025 RMK AO2 LTG DSNT W T01500150
KTVR 221153Z AUTO 00000KT 10SM SCT015 SCT021 BKN028 15/15 A3023 RMK AO2 SLP245 60002 70118 T01500150 10167 20144 55005
KTVR 221150Z AUTO 00000KT 10SM SCT017 BKN028 15/15 A3023 RMK AO2
KTVR 221053Z AUTO 09003KT 10SM FEW028 BKN070 14/14 A3022 RMK AO2 SLP240 T01440144
KTVR 221042Z AUTO 08004KT 10SM FEW015 SCT025 BKN070 14/14 A3023 RMK AO2 T01440144
KTVR 220953Z AUTO 30003KT 10SM FEW017 BKN029 OVC050 14/14 A3025 RMK AO2 LTG DSNT N RAE0859 SLP249 P0000 T01440144
KTVR 220928Z AUTO 03006KT 10SM FEW006 BKN055 OVC085 14/14 A3023 RMK AO2 LTG DSNT N AND NW RAE0859 P0000 T01440144
KTVR 220853Z AUTO 34003KT 10SM -RA SCT006 BKN017 OVC035 14/14 A3024 RMK AO2 LTG DSNT W-N RAB10 SLP245 P0001 60002 T01440144 53008
KTVR 220831Z AUTO 27005KT 10SM -RA SCT006 OVC015 14/14 A3024 RMK AO2 LTG DSNT W AND NW RAB10 P0000 T01440144
KTVR 220820Z AUTO 32008KT 10SM -RA FEW006 BKN013 OVC022 15/15 A3024 RMK AO2 LTG DSNT W-N RAB10 P0000 T01500150
KTVR 220800Z AUTO 36006KT 10SM BKN011 BKN018 OVC034 15/15 A3022 RMK AO2 LTG DSNT NW T01500150
KTVR 220753Z AUTO VRB06KT 10SM BKN009 BKN015 OVC020 14/14 A3022 RMK AO2 LTG DSNT NW RAB31E48 CIG 006V011 SLP240 P0001 T01440144
KTVR 220748Z AUTO 28009KT 10SM FEW007 BKN011 OVC032 14/14 A3023 RMK AO2 LTG DSNT NW RAB31E48 P0001
KTVR 220737Z AUTO 35007KT 9SM -RA SCT011 BKN018 OVC024 14/14 A3022 RMK AO2 LTG DSNT W AND NW RAB31 P0001 T01440144
KTVR 220731Z AUTO 35007G15KT 10SM -RA BKN009 BKN018 OVC024 14/14 A3022 RMK AO2 LTG DSNT W AND NW RAB31 CIG 005V013 P0000 T01440144
KTVR 220719Z AUTO 31006KT 10SM FEW005 BKN011 OVC023 15/15 A3022 RMK AO2 T01500150
KTVR 220703Z AUTO 30008G21KT 250V030 9SM BKN006 BKN011 OVC033 15/15 A3024 RMK AO2 LTG DSNT NW PRESRR T01500150
KTVR 220653Z AUTO VRB04G16KT 8SM SCT006 BKN028 OVC035 16/16 A3021 RMK AO2 LTG DSNT N AND NW SLP237 T01560156
KTVR 220650Z AUTO VRB05G16KT 8SM SCT006 BKN028 OVC035 16/16 A3021 RMK AO2 LTG DSNT N AND NW
KTVR 220634Z AUTO 00000KT 8SM SCT030 OVC035 16/16 A3020 RMK AO2 T01610161
KTVR 220603Z AUTO 35003KT 9SM FEW006 BKN029 OVC035 17/17 A3019 RMK AO2 T01670167
KTVR 220553Z AUTO 32004KT 9SM BKN034 BKN045 16/16 A3019 RMK AO2 LTG DSNT W SLP230 T01610161 10161 20150 402830150 53005
KTVR 220453Z AUTO 00000KT 10SM SCT043 BKN050 16/16 A3018 RMK AO2 SLP226 T01610161
KTVR 220353Z AUTO 10004KT 10SM FEW040 SCT060 16/16 A3018 RMK AO2 SLP225 T01610161
KTVR 212353Z AUTO 05007KT 10SM OVC007 15/15 A3016 RMK AO2 RAE31 SLP221 P0006 60116 T01500150 10283 20150 53008
KTVR 212334Z AUTO 04006KT 10SM BKN007 BKN060 OVC070 15/15 A3016 RMK AO2 RAE31 P0006 T01500150
KTVR 212319Z AUTO 02009KT 3SM +RA BR FEW007 BKN070 OVC085 15/15 A3015 RMK AO2 P0006 T01500150
KTVR 212253Z AUTO 01009KT 3SM +RA BR SCT035 BKN043 OVC060 16/16 A3016 RMK AO2 LTG DSNT E RAE2159B02 TSB2154E22 SLP219 P0027 T01560156
KTVR 212236Z AUTO 36011KT 9SM RA FEW012 BKN037 OVC046 16/16 A3016 RMK AO2 LTG DSNT N-SE RAE2159B02 TSB2154E22 P0024 T01560156
KTVR 212228Z AUTO 36011KT 10SM VCTS -RA SCT015 BKN030 OVC040 16/16 A3016 RMK AO2 LTG DSNT N-E RAE2159B02 TSB2154E22 P0023 T01560156
KTVR 212219Z AUTO 36009KT 3SM -TSRA BR FEW006 SCT017 OVC037 16/16 A3017 RMK AO2 LTG DSNT N AND NE RAE2159B02 TSB2154 P0023 T01610161
KTVR 212215Z AUTO 03014KT 1SM TSRA BR FEW006 SCT017 OVC037 16/16 A3017 RMK AO2 LTG DSNT N AND NE RAE2159B02 TSB2154 P0023 T01610161